Time;durP1;ratioP1;P1;durP2;ratioP2;P2;SDS_P1;SDS_P2;PMS_P1;PMS_P2;Temp;Humidity;BMP_temperature;BMP_pressure;BME280_temperature;BME280_humidity;BME280_pressure;Samples;Min_cycle;Max_cycle;Signal;HPM_P1;HPM_P2
2022/03/25 00:01:51;;;;;;;;;;;;;;;4.81;66.85;100372.44;8247110;28;19938;-72
2022/03/25 00:05:53;;;;;;;;;;;;;;;4.71;67.13;100366.94;8254061;28;19930;-72
2022/03/25 00:09:54;;;;;;;;;;;;;;;4.64;67.05;100368.41;8252204;28;19937;-72
2022/03/25 00:13:55;;;;;;;;;;;;;;;4.51;68.08;100372.25;8232123;28;19973;-72
2022/03/25 00:17:56;;;;;;;;;;;;;;;4.50;68.57;100372.22;8247268;28;19934;-72
2022/03/25 00:21:58;;;;;;;;;;;;;;;4.41;68.32;100370.16;8256079;28;20894;-72
2022/03/25 00:26:01;;;;;;;;;;;;;;;4.32;68.25;100369.84;8249856;28;19929;-72
2022/03/25 00:30:02;;;;;;;;;;;;;;;4.25;68.60;100370.44;8247563;28;19961;-71
2022/03/25 00:34:04;;;;;;;;;;;;;;;4.20;68.89;100370.28;8591650;23;19941;-72
2022/03/25 00:38:05;;;;;;;;;;;;;;;4.15;68.80;100364.09;8261148;28;19980;-72
2022/03/25 00:42:09;;;;;;;;;;;;;;;4.09;68.92;100371.56;8263714;28;19940;-72
2022/03/25 00:46:11;;;;;;;;;;;;;;;4.03;69.29;100367.88;8261921;28;19936;-72
2022/03/25 00:50:14;;;;;;;;;;;;;;;3.97;69.21;100365.97;8282198;28;19996;-72
2022/03/25 00:54:20;;;;;;;;;;;;;;;3.90;69.31;100359.72;8256383;28;19940;-72
2022/03/25 00:58:21;;;;;;;;;;;;;;;3.82;69.56;100366.28;8257137;28;19976;-72
2022/03/25 01:02:23;;;;;;;;;;;;;;;3.74;69.92;100364.22;8271175;28;20277;-72
2022/03/25 01:06:24;;;;;;;;;;;;;;;3.70;70.05;100358.09;8255531;28;20357;-72
2022/03/25 01:10:26;;;;;;;;;;;;;;;3.69;69.92;100360.59;8259432;28;19933;-72
2022/03/25 01:14:27;;;;;;;;;;;;;;;3.58;70.13;100358.47;8259444;28;19929;-72
2022/03/25 01:18:29;;;;;;;;;;;;;;;3.55;70.24;100350.66;8256202;28;20591;-72
2022/03/25 01:22:30;;;;;;;;;;;;;;;3.48;70.37;100358.94;8258368;28;19929;-72
2022/03/25 01:26:32;;;;;;;;;;;;;;;3.44;70.47;100361.34;8259028;28;19934;-72
2022/03/25 01:30:33;;;;;;;;;;;;;;;3.43;70.65;100357.03;8254543;28;19929;-72
2022/03/25 01:34:35;;;;;;;;;;;;;;;3.40;70.52;100360.31;8270790;28;19933;-72
2022/03/25 01:38:36;;;;;;;;;;;;;;;3.33;71.00;100354.06;8289844;28;19940;-72
2022/03/25 01:42:39;;;;;;;;;;;;;;;3.25;71.22;100352.91;8290161;28;20004;-72
2022/03/25 01:46:40;;;;;;;;;;;;;;;3.22;71.05;100350.19;8289507;28;19940;-72
2022/03/25 01:50:43;;;;;;;;;;;;;;;3.16;71.54;100351.66;8288979;28;19933;-72
2022/03/25 01:54:44;;;;;;;;;;;;;;;3.10;71.27;100346.28;8288977;28;19936;-72
2022/03/25 01:58:46;;;;;;;;;;;;;;;3.03;71.83;100340.88;8295550;28;19933;-73
2022/03/25 02:02:48;;;;;;;;;;;;;;;2.99;71.48;100345.81;8287326;28;20296;-72
2022/03/25 02:06:49;;;;;;;;;;;;;;;2.93;71.99;100333.63;8286554;28;19976;-72
2022/03/25 02:10:51;;;;;;;;;;;;;;;2.91;72.93;100342.09;8286367;28;19930;-71
2022/03/25 02:14:52;;;;;;;;;;;;;;;2.89;72.99;100341.16;8285623;28;19939;-72
2022/03/25 02:18:54;;;;;;;;;;;;;;;2.84;72.59;100342.63;8284425;28;19929;-72
2022/03/25 02:22:55;;;;;;;;;;;;;;;2.81;72.42;100342.50;8283064;28;19933;-72
2022/03/25 02:26:57;;;;;;;;;;;;;;;2.77;72.31;100338.94;8284301;28;19937;-72
2022/03/25 02:30:59;;;;;;;;;;;;;;;2.67;72.88;100335.09;8282801;28;19939;-72
2022/03/25 02:35:00;;;;;;;;;;;;;;;2.59;72.97;100335.59;8287553;28;19940;-72
2022/03/25 02:39:02;;;;;;;;;;;;;;;2.53;72.99;100333.66;8287651;28;19930;-72
2022/03/25 02:43:07;;;;;;;;;;;;;;;2.51;72.95;100329.25;8289642;28;19929;-72
2022/03/25 02:47:09;;;;;;;;;;;;;;;2.49;73.27;100330.88;8279386;28;20016;-72
2022/03/25 02:51:10;;;;;;;;;;;;;;;2.45;73.66;100326.44;8287650;28;20330;-72
2022/03/25 02:55:12;;;;;;;;;;;;;;;2.41;73.93;100326.31;8291632;28;20016;-72
2022/03/25 02:59:13;;;;;;;;;;;;;;;2.37;73.66;100332.13;8287139;28;19956;-72
2022/03/25 03:03:15;;;;;;;;;;;;;;;2.35;72.88;100327.75;8289935;28;19930;-72
2022/03/25 03:07:18;;;;;;;;;;;;;;;2.26;73.76;100332.47;8293741;28;20401;-72
2022/03/25 03:11:19;;;;;;;;;;;;;;;2.20;73.98;100335.63;8286334;28;20355;-72
2022/03/25 03:15:22;;;;;;;;;;;;;;;2.17;73.60;100329.50;8288915;28;19929;-72
2022/03/25 03:19:23;;;;;;;;;;;;;;;2.15;73.58;100325.97;8288759;28;19940;-72
2022/03/25 03:23:24;;;;;;;;;;;;;;;2.08;73.87;100335.09;8292546;28;20310;-72
2022/03/25 03:27:26;;;;;;;;;;;;;;;2.01;74.31;100325.38;8289152;28;20044;-72
2022/03/25 03:31:27;;;;;;;;;;;;;;;1.96;74.61;100322.59;8286644;28;19930;-72
2022/03/25 03:35:29;;;;;;;;;;;;;;;1.91;74.33;100318.97;8240197;28;20334;-72
2022/03/25 03:39:30;;;;;;;;;;;;;;;1.90;74.38;100326.56;8233799;28;19930;-72
2022/03/25 03:43:32;;;;;;;;;;;;;;;1.87;74.34;100316.22;8233978;28;19940;-72
2022/03/25 03:47:33;;;;;;;;;;;;;;;1.80;74.89;100315.94;8229183;28;19930;-72
2022/03/25 03:51:34;;;;;;;;;;;;;;;1.72;74.96;100316.38;8248907;28;20008;-72
2022/03/25 03:55:36;;;;;;;;;;;;;;;1.70;74.76;100312.88;8233692;28;20048;-72
2022/03/25 03:59:37;;;;;;;;;;;;;;;1.70;74.94;100318.00;8232333;28;19930;-72
2022/03/25 04:03:39;;;;;;;;;;;;;;;1.68;74.94;100319.63;8228607;28;20307;-72
2022/03/25 04:07:42;;;;;;;;;;;;;;;1.63;75.09;100321.97;8229842;28;20040;-72
2022/03/25 04:11:43;;;;;;;;;;;;;;;1.51;75.45;100319.72;8225769;28;19970;-72
2022/03/25 04:15:45;;;;;;;;;;;;;;;1.47;75.66;100322.06;8243426;28;20005;-72
2022/03/25 04:19:46;;;;;;;;;;;;;;;1.43;75.44;100317.59;8230161;28;20020;-72
2022/03/25 04:23:48;;;;;;;;;;;;;;;1.41;76.25;100319.19;8248288;28;19930;-72
2022/03/25 04:27:50;;;;;;;;;;;;;;;1.42;76.30;100324.38;8243237;28;20361;-71
2022/03/25 04:31:52;;;;;;;;;;;;;;;1.43;76.13;100325.25;8221231;28;20305;-72
2022/03/25 04:35:53;;;;;;;;;;;;;;;1.39;75.50;100331.03;8278281;28;19929;-72
2022/03/25 04:39:54;;;;;;;;;;;;;;;1.28;75.92;100334.81;8293175;28;19940;-72
2022/03/25 04:43:56;;;;;;;;;;;;;;;1.23;76.17;100326.00;8292425;28;19929;-72
2022/03/25 04:47:57;;;;;;;;;;;;;;;1.18;76.56;100324.13;8290239;28;19976;-72
2022/03/25 04:51:59;;;;;;;;;;;;;;;1.13;76.42;100322.16;8290094;28;19977;-72
2022/03/25 04:56:01;;;;;;;;;;;;;;;1.08;76.35;100323.63;8296598;28;20330;-72
2022/03/25 05:00:03;;;;;;;;;;;;;;;1.05;77.19;100326.00;8286947;28;20340;-72
2022/03/25 05:04:04;;;;;;;;;;;;;;;0.99;77.18;100326.59;8295840;28;20040;-72
2022/03/25 05:08:05;;;;;;;;;;;;;;;0.97;77.66;100329.88;8297784;28;20461;-72
2022/03/25 05:12:07;;;;;;;;;;;;;;;0.95;77.33;100332.38;8289015;28;20020;-72
2022/03/25 05:16:08;;;;;;;;;;;;;;;0.94;77.11;100333.16;8285424;28;19940;-72
2022/03/25 05:20:10;;;;;;;;;;;;;;;0.92;77.01;100327.09;8287474;28;19934;-72
2022/03/25 05:24:12;;;;;;;;;;;;;;;0.85;77.53;100336.13;8286315;28;20477;-72
2022/03/25 05:28:15;;;;;;;;;;;;;;;0.79;77.30;100343.50;8285917;28;19933;-72
2022/03/25 05:32:16;;;;;;;;;;;;;;;0.75;77.64;100343.28;8285770;28;19960;-71
2022/03/25 05:36:17;;;;;;;;;;;;;;;0.79;77.80;100343.50;8287153;28;19933;-71
2022/03/25 05:40:20;;;;;;;;;;;;;;;0.78;77.76;100346.88;8274130;28;19952;-71
2022/03/25 05:44:21;;;;;;;;;;;;;;;0.76;77.86;100352.72;8288029;28;19987;-71
2022/03/25 05:48:23;;;;;;;;;;;;;;;0.78;77.39;100356.22;8284572;28;19942;-71
2022/03/25 05:52:25;;;;;;;;;;;;;;;0.81;77.66;100358.91;8286642;28;19992;-71
2022/03/25 05:56:26;;;;;;;;;;;;;;;0.81;78.17;100366.59;8286559;28;19935;-71
2022/03/25 06:00:28;;;;;;;;;;;;;;;0.88;78.12;100371.19;8283892;28;19929;-71
2022/03/25 06:04:29;;;;;;;;;;;;;;;0.97;77.85;100376.78;8283960;28;20021;-72
2022/03/25 06:08:31;;;;;;;;;;;;;;;1.04;77.22;100371.16;8283924;28;19972;-72
2022/03/25 06:12:33;;;;;;;;;;;;;;;1.11;77.48;100377.47;8287543;28;20007;-72
2022/03/25 06:16:34;;;;;;;;;;;;;;;1.17;76.76;100375.19;8267840;28;20245;-72
2022/03/25 06:20:35;;;;;;;;;;;;;;;1.36;77.42;100382.94;8285563;28;20361;-72
2022/03/25 06:24:37;;;;;;;;;;;;;;;1.57;77.00;100382.22;8289231;28;19929;-72
2022/03/25 06:28:39;;;;;;;;;;;;;;;1.75;76.26;100377.97;8284864;28;19929;-73
2022/03/25 06:32:41;;;;;;;;;;;;;;;2.38;75.09;100390.25;8293137;28;19931;-73
2022/03/25 06:36:42;;;;;;;;;;;;;;;3.07;72.89;100384.66;8276143;28;19933;-72
2022/03/25 06:40:43;;;;;;;;;;;;;;;3.71;70.56;100388.09;8250012;28;19930;-72
2022/03/25 06:44:45;;;;;;;;;;;;;;;4.28;68.17;100382.50;8269054;28;19940;-72
2022/03/25 06:48:46;;;;;;;;;;;;;;;4.82;66.40;100384.47;8252008;28;20032;-72
2022/03/25 06:52:48;;;;;;;;;;;;;;;5.32;65.25;100393.03;8252440;28;19972;-72
2022/03/25 06:56:50;;;;;;;;;;;;;;;5.64;64.20;100382.88;8240533;28;19937;-72
2022/03/25 07:00:51;;;;;;;;;;;;;;;5.84;63.14;100391.22;8245968;28;19940;-72
2022/03/25 07:04:53;;;;;;;;;;;;;;;5.94;63.13;100399.31;8263553;28;20000;-72
2022/03/25 07:08:55;;;;;;;;;;;;;;;6.09;62.93;100392.84;8246313;28;20261;-72
2022/03/25 07:12:57;;;;;;;;;;;;;;;6.31;62.47;100393.53;8255929;28;20434;-72
2022/03/25 07:16:58;;;;;;;;;;;;;;;6.57;61.68;100391.69;8250249;28;20049;-72
2022/03/25 07:21:01;;;;;;;;;;;;;;;6.89;60.01;100386.53;8254954;28;19934;-72
2022/03/25 07:25:02;;;;;;;;;;;;;;;7.33;59.70;100392.81;8248949;28;20341;-72
2022/03/25 07:29:04;;;;;;;;;;;;;;;7.83;58.95;100395.72;8253018;28;19940;-72
2022/03/25 07:33:05;;;;;;;;;;;;;;;8.39;57.70;100384.03;8251301;28;19929;-72
2022/03/25 07:37:07;;;;;;;;;;;;;;;8.89;55.97;100381.56;8288300;28;19930;-72
2022/03/25 07:41:09;;;;;;;;;;;;;;;9.27;54.79;100389.13;8287863;28;20016;-72
2022/03/25 07:45:11;;;;;;;;;;;;;;;9.59;53.48;100387.06;8284255;28;20680;-72
2022/03/25 07:49:12;;;;;;;;;;;;;;;9.87;52.29;100386.59;8281118;28;20112;-72
2022/03/25 07:53:13;;;;;;;;;;;;;;;10.12;51.49;100390.44;8272497;28;20448;-72
2022/03/25 07:57:15;;;;;;;;;;;;;;;10.52;51.63;100388.34;8283958;28;19929;-72
2022/03/25 08:01:17;;;;;;;;;;;;;;;10.78;50.75;100389.53;8283032;28;20008;-72
2022/03/25 08:05:19;;;;;;;;;;;;;;;11.00;48.88;100392.34;8285675;28;19929;-72
2022/03/25 08:09:20;;;;;;;;;;;;;;;11.33;48.81;100386.59;8284881;28;20021;-71
2022/03/25 08:13:22;;;;;;;;;;;;;;;11.72;47.82;100389.50;8287615;28;19929;-71
2022/03/25 08:17:24;;;;;;;;;;;;;;;12.11;47.25;100385.44;8277629;28;19937;-71
2022/03/25 08:21:25;;;;;;;;;;;;;;;12.51;47.42;100393.41;8284831;28;19937;-71
2022/03/25 08:29:46;;;;;;;;;;;;;;;13.31;45.09;100395.38;8284564;28;19929;-71
2022/03/25 08:33:48;;;;;;;;;;;;;;;13.53;43.46;100393.66;8287279;28;19929;-71
2022/03/25 08:37:49;;;;;;;;;;;;;;;13.74;41.76;100397.97;8281309;28;19929;-71
2022/03/25 08:41:50;;;;;;;;;;;;;;;13.91;40.81;100391.84;8289549;28;20217;-71
2022/03/25 08:45:52;;;;;;;;;;;;;;;14.16;40.21;100397.00;8272996;28;19936;-71
2022/03/25 08:49:53;;;;;;;;;;;;;;;14.59;40.59;100387.31;8283233;28;19999;-72
2022/03/25 08:53:55;;;;;;;;;;;;;;;14.92;39.03;100396.72;8285910;28;19965;-71
2022/03/25 08:57:57;;;;;;;;;;;;;;;15.22;37.58;100389.53;8282093;28;19929;-72
2022/03/25 09:01:59;;;;;;;;;;;;;;;15.36;37.90;100391.19;8281396;28;19929;-72
2022/03/25 09:06:00;;;;;;;;;;;;;;;15.60;37.55;100384.88;8283244;28;20505;-72
2022/03/25 09:10:08;;;;;;;;;;;;;;;15.86;36.96;100378.56;8284322;28;19937;-71
2022/03/25 09:14:09;;;;;;;;;;;;;;;16.07;36.10;100374.84;8283969;28;20540;-71
2022/03/25 09:18:11;;;;;;;;;;;;;;;16.34;37.18;100382.41;8283105;28;20591;-71
2022/03/25 09:22:12;;;;;;;;;;;;;;;16.43;36.46;100382.28;8286446;28;19929;-70
2022/03/25 09:26:13;;;;;;;;;;;;;;;16.58;36.02;100381.22;8282846;28;20342;-70
2022/03/25 09:30:15;;;;;;;;;;;;;;;16.78;35.47;100380.97;8281323;28;19929;-70
2022/03/25 09:38:55;;;;;;;;;;;;;;;17.27;34.88;100380.25;8283332;28;20036;-70
2022/03/25 09:42:57;;;;;;;;;;;;;;;17.37;33.97;100379.22;8285625;28;19936;-71
2022/03/25 09:46:58;;;;;;;;;;;;;;;17.37;34.33;100376.59;8281110;28;19933;-71
2022/03/25 09:51:00;;;;;;;;;;;;;;;17.56;34.21;100375.38;8283493;28;20773;-70
2022/03/25 09:55:13;;;;;;;;;;;;;;;17.77;34.87;100368.91;8282066;28;19930;-71
2022/03/25 09:59:17;;;;;;;;;;;;;;;17.98;34.42;100365.03;8287113;28;20056;-71
2022/03/25 10:03:32;;;;;;;;;;;;;;;18.09;34.92;100360.44;8279844;28;19936;-71
2022/03/25 10:07:34;;;;;;;;;;;;;;;18.34;34.95;100369.56;8286798;28;19933;-71
2022/03/25 10:11:37;;;;;;;;;;;;;;;18.63;32.36;100365.47;8288561;28;19983;-69
2022/03/25 10:15:38;;;;;;;;;;;;;;;18.75;33.48;100356.47;8274356;28;19933;-71
2022/03/25 10:19:46;;;;;;;;;;;;;;;18.97;32.83;100352.44;8286581;28;19935;-71
2022/03/25 10:23:47;;;;;;;;;;;;;;;18.97;32.13;100349.81;8283733;28;19930;-72
2022/03/25 10:27:49;;;;;;;;;;;;;;;19.11;31.93;100350.34;8282681;28;20405;-71
2022/03/25 10:32:09;;;;;;;;;;;;;;;19.30;30.91;100342.88;8282371;28;20603;-70
2022/03/25 10:36:12;;;;;;;;;;;;;;;19.26;31.33;100349.13;8285834;28;19937;-71
2022/03/25 10:40:13;;;;;;;;;;;;;;;19.65;31.12;100335.88;8283127;28;19929;-71
2022/03/25 10:44:15;;;;;;;;;;;;;;;19.78;31.30;100337.28;8288892;28;20016;-71
2022/03/25 10:48:17;;;;;;;;;;;;;;;19.79;31.26;100336.38;8282679;28;19937;-71
2022/03/25 10:52:26;;;;;;;;;;;;;;;19.91;29.21;100331.59;8283017;28;19933;-71
2022/03/25 10:56:42;;;;;;;;;;;;;;;19.91;28.87;100328.09;8281405;28;19930;-72
2022/03/25 11:00:44;;;;;;;;;;;;;;;19.94;29.59;100330.69;8281656;28;19933;-71
2022/03/25 11:04:45;;;;;;;;;;;;;;;20.11;27.43;100330.22;8287256;28;20589;-71
2022/03/25 11:08:47;;;;;;;;;;;;;;;20.06;28.77;100318.91;8281372;28;20408;-71
2022/03/25 11:12:51;;;;;;;;;;;;;;;20.11;28.29;100314.41;8262329;28;20376;-71
2022/03/25 11:16:59;;;;;;;;;;;;;;;20.30;29.96;100307.69;8275639;28;19937;-70
2022/03/25 11:21:04;;;;;;;;;;;;;;;20.68;28.54;100306.53;8273492;28;19972;-71
2022/03/25 11:25:07;;;;;;;;;;;;;;;20.72;27.67;100302.88;8277761;28;19929;-70
2022/03/25 11:29:10;;;;;;;;;;;;;;;20.89;28.07;100305.00;8279744;28;19930;-71
2022/03/25 11:33:13;;;;;;;;;;;;;;;21.00;27.76;100305.50;8277493;28;20048;-71
2022/03/25 11:37:31;;;;;;;;;;;;;;;21.01;28.15;100301.09;8279615;28;19941;-71
2022/03/25 11:41:32;;;;;;;;;;;;;;;21.08;26.64;100292.06;8283074;28;19933;-71
2022/03/25 11:45:36;;;;;;;;;;;;;;;21.04;25.78;100298.38;8275972;28;20333;-71
2022/03/25 11:49:41;;;;;;;;;;;;;;;21.16;26.45;100287.38;8281067;28;20024;-72
2022/03/25 11:53:42;;;;;;;;;;;;;;;21.25;26.38;100278.31;8282602;28;19940;-71
2022/03/25 11:57:44;;;;;;;;;;;;;;;21.35;26.31;100279.72;8280825;28;19933;-71
2022/03/25 12:01:46;;;;;;;;;;;;;;;21.49;25.98;100274.81;8283297;28;19936;-71
2022/03/25 12:05:58;;;;;;;;;;;;;;;21.45;25.31;100267.94;8284900;28;19937;-70
2022/03/25 12:09:59;;;;;;;;;;;;;;;21.39;24.10;100271.66;8288340;28;20358;-71
2022/03/25 12:14:01;;;;;;;;;;;;;;;21.38;25.33;100269.94;8296278;28;19937;-71
2022/03/25 12:18:21;;;;;;;;;;;;;;;21.39;24.35;100260.22;8283306;28;19996;-71
2022/03/25 12:22:29;;;;;;;;;;;;;;;21.54;22.74;100256.16;8285211;28;19984;-71
2022/03/25 12:26:31;;;;;;;;;;;;;;;21.63;22.64;100250.56;8286729;28;19940;-71
2022/03/25 12:30:36;;;;;;;;;;;;;;;21.60;22.82;100255.94;8283302;28;19944;-71
2022/03/25 12:34:41;;;;;;;;;;;;;;;21.65;22.17;100249.56;8285670;28;19937;-71
2022/03/25 12:38:44;;;;;;;;;;;;;;;21.64;21.74;100245.22;8293670;28;19940;-71
2022/03/25 12:42:50;;;;;;;;;;;;;;;21.82;22.21;100241.03;8285025;28;20332;-71
2022/03/25 12:46:52;;;;;;;;;;;;;;;21.94;22.27;100234.44;8283956;28;20278;-71
2022/03/25 12:50:56;;;;;;;;;;;;;;;21.96;22.06;100236.09;8287339;28;20673;-72
2022/03/25 12:55:04;;;;;;;;;;;;;;;21.96;21.37;100237.88;8286665;28;20353;-72
2022/03/25 12:59:06;;;;;;;;;;;;;;;22.04;21.35;100241.09;8264459;28;19940;-71
2022/03/25 13:03:08;;;;;;;;;;;;;;;21.92;21.05;100237.13;8280811;28;19936;-69
2022/03/25 13:07:14;;;;;;;;;;;;;;;21.73;20.84;100228.16;8278325;28;19956;-71
2022/03/25 13:11:15;;;;;;;;;;;;;;;21.62;21.27;100215.31;8286079;28;20037;-71
2022/03/25 13:15:18;;;;;;;;;;;;;;;21.69;21.37;100216.81;8281686;28;19929;-71
2022/03/25 13:19:30;;;;;;;;;;;;;;;21.74;21.30;100208.75;8281087;28;20036;-71
2022/03/25 13:23:32;;;;;;;;;;;;;;;21.82;22.92;100211.09;8281912;28;20490;-71
2022/03/25 13:27:33;;;;;;;;;;;;;;;22.01;23.14;100210.31;8280168;28;20778;-71
2022/03/25 13:31:34;;;;;;;;;;;;;;;22.03;22.49;100204.97;8277256;28;20029;-70
2022/03/25 13:35:57;;;;;;;;;;;;;;;22.00;22.23;100200.69;8281872;28;19936;-70
2022/03/25 13:39:58;;;;;;;;;;;;;;;21.94;23.22;100205.34;8282269;28;19937;-71
2022/03/25 13:44:07;;;;;;;;;;;;;;;21.87;22.72;100199.41;8283495;28;20445;-71
2022/03/25 13:48:11;;;;;;;;;;;;;;;21.99;22.46;100201.59;8290030;28;19945;-71
2022/03/25 13:52:13;;;;;;;;;;;;;;;21.79;22.24;100190.06;8284100;28;19929;-71
2022/03/25 13:56:21;;;;;;;;;;;;;;;21.83;23.29;100195.16;8293212;28;20739;-71
2022/03/25 14:00:49;;;;;;;;;;;;;;;21.80;22.99;100186.50;8276202;28;21298;-70
2022/03/25 14:04:50;;;;;;;;;;;;;;;21.79;23.34;100184.75;8268923;28;19968;-70
2022/03/25 14:08:52;;;;;;;;;;;;;;;21.80;23.33;100191.78;8285197;28;19929;-71
2022/03/25 14:12:56;;;;;;;;;;;;;;;21.82;22.83;100185.50;8282409;28;19930;-70
2022/03/25 14:16:58;;;;;;;;;;;;;;;21.75;21.87;100173.44;8280324;28;20730;-71
2022/03/25 14:21:02;;;;;;;;;;;;;;;21.75;22.63;100180.53;8284137;28;19988;-70
2022/03/25 14:25:04;;;;;;;;;;;;;;;21.87;22.49;100170.31;8282426;28;19929;-70
2022/03/25 14:29:09;;;;;;;;;;;;;;;21.81;21.87;100162.63;8281496;28;19984;-70
2022/03/25 14:33:10;;;;;;;;;;;;;;;21.79;22.94;100174.19;8269360;28;19929;-70
2022/03/25 14:37:13;;;;;;;;;;;;;;;21.80;22.82;100162.69;8282869;28;19936;-71
2022/03/25 14:41:14;;;;;;;;;;;;;;;21.90;23.14;100164.03;8279488;28;19940;-71
2022/03/25 14:45:16;;;;;;;;;;;;;;;21.79;22.09;100156.53;8279915;28;20016;-71
2022/03/25 14:49:18;;;;;;;;;;;;;;;21.67;22.78;100167.56;8281598;28;20722;-71
2022/03/25 14:53:19;;;;;;;;;;;;;;;21.63;22.34;100156.25;8269114;28;19929;-70
2022/03/25 14:57:21;;;;;;;;;;;;;;;21.47;22.26;100159.53;8277282;28;19972;-71
2022/03/25 15:01:23;;;;;;;;;;;;;;;21.41;22.13;100166.75;8276976;28;19937;-72
2022/03/25 15:05:24;;;;;;;;;;;;;;;21.35;21.93;100163.47;8281068;28;20353;-70
2022/03/25 15:09:26;;;;;;;;;;;;;;;21.34;22.25;100153.81;8279420;28;19987;-71
2022/03/25 15:13:27;;;;;;;;;;;;;;;21.25;21.82;100148.88;8279391;28;19935;-70
2022/03/25 15:17:29;;;;;;;;;;;;;;;21.15;21.21;100161.50;8277345;28;19933;-70
2022/03/25 15:21:30;;;;;;;;;;;;;;;21.13;21.26;100150.13;8288526;28;19933;-70
2022/03/25 15:25:31;;;;;;;;;;;;;;;21.19;20.78;100154.34;8276258;28;19936;-70
2022/03/25 15:34:26;;;;;;;;;;;;;;;21.45;18.47;100142.88;8234600;28;20020;-70
2022/03/25 15:38:47;;;;;;;;;;;;;;;21.80;18.52;100147.69;8284419;28;19930;-70
2022/03/25 15:42:49;;;;;;;;;;;;;;;22.15;19.33;100145.50;8288010;28;19940;-71
2022/03/25 15:46:50;;;;;;;;;;;;;;;22.30;17.74;100147.53;8282177;28;20020;-70
2022/03/25 15:50:51;;;;;;;;;;;;;;;22.50;17.90;100141.41;8286019;28;19968;-70
2022/03/25 15:54:53;;;;;;;;;;;;;;;22.73;17.75;100143.09;8286135;28;20293;-71
2022/03/25 15:58:54;;;;;;;;;;;;;;;22.86;18.06;100147.84;8284760;28;19933;-71
2022/03/25 16:02:56;;;;;;;;;;;;;;;22.96;18.07;100145.66;8285536;28;20285;-70
2022/03/25 16:06:58;;;;;;;;;;;;;;;23.01;18.30;100145.47;8287544;28;19940;-70
2022/03/25 16:11:00;;;;;;;;;;;;;;;24.57;17.70;100145.25;8285412;28;19929;-71
2022/03/25 16:15:02;;;;;;;;;;;;;;;24.63;17.09;100150.28;8270737;28;20032;-70
2022/03/25 16:19:03;;;;;;;;;;;;;;;24.26;17.46;100147.69;8282604;28;19932;-69
2022/03/25 16:23:06;;;;;;;;;;;;;;;24.31;17.80;100146.53;8280831;28;20356;-70
2022/03/25 16:27:07;;;;;;;;;;;;;;;24.11;17.50;100146.63;8279099;28;19929;-70
2022/03/25 16:31:09;;;;;;;;;;;;;;;26.15;16.37;100153.72;8281019;28;19930;-70
2022/03/25 16:35:11;;;;;;;;;;;;;;;28.24;15.30;100152.56;8285875;28;19929;-70
2022/03/25 16:39:12;;;;;;;;;;;;;;;29.55;14.97;100145.50;8285908;28;19930;-70
2022/03/25 16:43:14;;;;;;;;;;;;;;;30.16;14.04;100148.25;8284954;28;19929;-70
2022/03/25 16:47:15;;;;;;;;;;;;;;;30.47;13.77;100142.34;8281350;28;19933;-70
2022/03/25 16:51:17;;;;;;;;;;;;;;;30.07;13.43;100144.44;8287763;28;20020;-71
2022/03/25 16:55:19;;;;;;;;;;;;;;;29.09;14.11;100148.69;8284279;28;19944;-70
2022/03/25 16:59:21;;;;;;;;;;;;;;;26.01;16.87;100148.31;8285499;28;19937;-70
2022/03/25 17:03:48;;;;;;;;;;;;;;;23.20;19.03;100143.72;8281844;28;19995;-70
2022/03/25 17:07:49;;;;;;;;;;;;;;;21.58;19.97;100147.66;8262537;28;19933;-70
2022/03/25 17:11:51;;;;;;;;;;;;;;;20.40;22.09;100150.81;8285421;28;19944;-69
2022/03/25 17:15:53;;;;;;;;;;;;;;;19.60;23.59;100157.69;8279353;28;20623;-70
2022/03/25 17:19:55;;;;;;;;;;;;;;;19.02;24.36;100161.03;8283713;28;19929;-70
2022/03/25 17:23:56;;;;;;;;;;;;;;;18.54;25.34;100155.25;8284474;28;20435;-70
2022/03/25 17:27:58;;;;;;;;;;;;;;;18.06;26.25;100168.63;8283918;28;19972;-70
2022/03/25 17:31:59;;;;;;;;;;;;;;;17.73;26.99;100170.22;8280950;28;20570;-71
2022/03/25 17:36:00;;;;;;;;;;;;;;;17.45;27.72;100172.53;8279598;28;19929;-71
2022/03/25 17:40:03;;;;;;;;;;;;;;;17.16;28.11;100171.31;8282421;28;19969;-71
2022/03/25 17:44:04;;;;;;;;;;;;;;;16.96;28.82;100172.59;8277411;28;19980;-71
2022/03/25 17:48:07;;;;;;;;;;;;;;;16.77;28.96;100179.91;8270544;28;20048;-70
2022/03/25 17:52:08;;;;;;;;;;;;;;;16.61;29.44;100182.75;8287182;28;19936;-70
2022/03/25 17:56:10;;;;;;;;;;;;;;;16.43;29.71;100187.41;8274159;28;19930;-70
2022/03/25 18:00:12;;;;;;;;;;;;;;;16.20;30.45;100182.53;8271340;28;19933;-70
2022/03/25 18:04:13;;;;;;;;;;;;;;;16.04;29.87;100183.63;8280018;28;20040;-70
2022/03/25 18:08:15;;;;;;;;;;;;;;;15.92;29.93;100192.50;8289142;28;20040;-70
2022/03/25 18:12:17;;;;;;;;;;;;;;;15.79;30.54;100201.41;8280641;28;19956;-69
2022/03/25 18:16:19;;;;;;;;;;;;;;;15.63;30.91;100203.38;8285712;28;19995;-70
2022/03/25 18:20:22;;;;;;;;;;;;;;;15.45;30.91;100209.66;8284902;28;19980;-70
2022/03/25 18:24:24;;;;;;;;;;;;;;;15.29;30.91;100213.31;8291084;28;19930;-70
2022/03/25 18:28:26;;;;;;;;;;;;;;;15.20;30.44;100213.41;8289961;28;19944;-71
2022/03/25 18:32:28;;;;;;;;;;;;;;;15.08;31.12;100212.66;8275315;28;20376;-70
2022/03/25 18:36:30;;;;;;;;;;;;;;;14.95;31.07;100216.25;8291369;28;20015;-69
2022/03/25 18:40:33;;;;;;;;;;;;;;;14.84;31.22;100215.47;8293348;28;20631;-71
2022/03/25 18:44:34;;;;;;;;;;;;;;;14.65;33.18;100222.59;8263756;28;19936;-71
2022/03/25 18:48:41;;;;;;;;;;;;;;;14.26;35.47;100228.06;8259358;28;20737;-71
2022/03/25 18:52:42;;;;;;;;;;;;;;;13.93;36.28;100221.28;8288482;28;19935;-71
2022/03/25 18:56:43;;;;;;;;;;;;;;;13.65;36.40;100228.38;8283248;28;19944;-72
2022/03/25 19:00:45;;;;;;;;;;;;;;;13.43;38.03;100225.78;8279810;28;19936;-71
2022/03/25 19:04:47;;;;;;;;;;;;;;;13.20;38.06;100232.81;8284240;28;19968;-71
2022/03/25 19:08:49;;;;;;;;;;;;;;;13.01;38.58;100235.41;8282751;28;19933;-71
2022/03/25 19:12:51;;;;;;;;;;;;;;;12.93;38.94;100241.50;8286328;28;20023;-71
2022/03/25 19:16:52;;;;;;;;;;;;;;;12.69;39.57;100250.16;8282212;28;19930;-71
2022/03/25 19:20:53;;;;;;;;;;;;;;;12.50;39.63;100249.28;8284998;28;20660;-72
2022/03/25 19:24:55;;;;;;;;;;;;;;;12.38;40.23;100244.03;8304256;28;19929;-72
2022/03/25 19:28:56;;;;;;;;;;;;;;;12.18;40.56;100248.34;8293265;28;19944;-71
2022/03/25 19:32:58;;;;;;;;;;;;;;;12.07;41.61;100261.34;8280247;28;20559;-72
2022/03/25 19:36:59;;;;;;;;;;;;;;;11.92;42.95;100267.34;8280361;28;20245;-71
2022/03/25 19:41:01;;;;;;;;;;;;;;;11.66;43.91;100271.50;8277511;28;20748;-71
2022/03/25 19:45:04;;;;;;;;;;;;;;;11.42;45.44;100267.03;8272704;28;19929;-71
2022/03/25 19:49:05;;;;;;;;;;;;;;;11.24;46.25;100277.31;8301985;28;19929;-71
2022/03/25 19:53:06;;;;;;;;;;;;;;;11.04;47.09;100274.56;8287129;28;19930;-71
2022/03/25 19:57:08;;;;;;;;;;;;;;;10.82;47.75;100266.59;8284295;28;20021;-71
2022/03/25 20:01:11;;;;;;;;;;;;;;;10.63;47.67;100275.09;8281927;28;19939;-71
2022/03/25 20:05:12;;;;;;;;;;;;;;;10.41;48.54;100275.72;8298238;28;19940;-71
2022/03/25 20:09:14;;;;;;;;;;;;;;;10.28;49.02;100283.38;8302411;28;19929;-71
2022/03/25 20:13:15;;;;;;;;;;;;;;;10.16;49.40;100282.34;8289087;28;19991;-72
2022/03/25 20:17:16;;;;;;;;;;;;;;;10.01;50.62;100288.22;8292410;28;20012;-72
2022/03/25 20:21:18;;;;;;;;;;;;;;;9.83;51.17;100280.19;8298884;28;19943;-71
2022/03/25 20:25:20;;;;;;;;;;;;;;;9.71;51.62;100280.06;8293227;28;19948;-72
2022/03/25 20:29:26;;;;;;;;;;;;;;;9.63;51.29;100287.72;8295822;28;19975;-71
2022/03/25 20:33:28;;;;;;;;;;;;;;;9.57;51.87;100287.63;8297888;28;19952;-72
2022/03/25 20:37:29;;;;;;;;;;;;;;;9.44;51.36;100289.19;8289281;28;19936;-72
2022/03/25 20:42:16;;;;;;;20.05;10.27;;;;;;;9.36;52.35;100299.44;8462143;27;20451;-71
2022/03/25 20:46:23;;;;;;;25.58;11.15;;;;;;;9.31;51.68;100310.56;8444339;27;57063;-71
2022/03/25 20:50:25;;;;;;;19.00;11.20;;;;;;;9.25;52.63;100313.06;8457948;27;20430;-71
2022/03/25 20:54:27;;;;;;;21.98;11.85;;;;;;;9.24;52.30;100309.63;8453184;28;20811;-71
2022/03/25 20:58:29;;;;;;;20.83;12.48;;;;;;;9.17;52.94;100318.16;8445676;28;20134;-72
2022/03/25 21:02:30;;;;;;;21.63;12.63;;;;;;;9.12;52.57;100308.53;8449947;28;20047;-72